DLH4LC EDDH-EGKK
Flight info
| Callsign | DLH4LC |
|---|---|
| Flight time | N/A |
| Altitude | 34000 |
| Route | WSN5G/33 WSN N125 ITMIZ DCT GALSO Q63 ARREK Y4 TEBRA |
| Aircraft | A321/M-SDE3FGHIRWY/LB1 |
Departure
| Time | 2026-04-23 20:25 |
|---|---|
| Airport | Hamburg Helmut Schmidt Airport (EDDH) |
Arrival
| Time | N/A |
|---|---|
| Airport | London Gatwick Airport (EGKK) |
| Time | Latitude | Longitude | Altitude | Speed | Heading |
|---|---|---|---|---|---|
| 2026-04-23 19:57 | 53.63373 | 10.00332 | 43 ft | 0 kts | 86° |
| 2026-04-23 20:12 | 53.63372 | 10.00300 | 44 ft | 4 kts | 86° |
| 2026-04-23 20:12 | 53.63373 | 10.00257 | 41 ft | 4 kts | 116° |
| 2026-04-23 20:13 | 53.63390 | 10.00228 | 42 ft | 4 kts | 164° |
| 2026-04-23 20:13 | 53.63404 | 10.00224 | 46 ft | 1 kts | 175° |
| 2026-04-23 20:13 | 53.63406 | 10.00224 | 46 ft | 0 kts | 175° |
| 2026-04-23 20:15 | 53.63405 | 10.00224 | 46 ft | 1 kts | 175° |
| 2026-04-23 20:16 | 53.63357 | 10.00230 | 44 ft | 14 kts | 175° |
| 2026-04-23 20:16 | 53.63218 | 10.00248 | 46 ft | 24 kts | 175° |
| 2026-04-23 20:16 | 53.63056 | 10.00243 | 45 ft | 21 kts | 204° |
| 2026-04-23 20:16 | 53.62948 | 10.00130 | 46 ft | 18 kts | 212° |
| 2026-04-23 20:17 | 53.62850 | 10.00015 | 46 ft | 16 kts | 219° |
| 2026-04-23 20:17 | 53.62832 | 9.99992 | 46 ft | 0 kts | 216° |
| 2026-04-23 20:19 | 53.62821 | 9.99979 | 47 ft | 9 kts | 214° |
| 2026-04-23 20:19 | 53.62744 | 9.99885 | 48 ft | 5 kts | 285° |
| 2026-04-23 20:20 | 53.62760 | 9.99843 | 45 ft | 5 kts | 317° |
| 2026-04-23 20:20 | 53.62798 | 9.99807 | 47 ft | 6 kts | 332° |
| 2026-04-23 20:20 | 53.62799 | 9.99806 | 47 ft | 0 kts | 332° |
| 2026-04-23 20:22 | 53.62801 | 9.99804 | 47 ft | 0 kts | 332° |
| 2026-04-23 20:22 | 53.62802 | 9.99802 | 47 ft | 1 kts | 332° |
| 2026-04-23 20:22 | 53.62804 | 9.99801 | 47 ft | 1 kts | 332° |
| 2026-04-23 20:23 | 53.62815 | 9.99791 | 45 ft | 3 kts | 332° |
| 2026-04-23 20:23 | 53.62817 | 9.99789 | 46 ft | 0 kts | 331° |
| 2026-04-23 20:23 | 53.62820 | 9.99787 | 46 ft | 1 kts | 331° |
| 2026-04-23 20:23 | 53.62828 | 9.99779 | 47 ft | 2 kts | 331° |
| 2026-04-23 20:24 | 53.62846 | 9.99763 | 47 ft | 4 kts | 332° |
| 2026-04-23 20:24 | 53.62998 | 9.99631 | 45 ft | 59 kts | 333° |
| 2026-04-23 20:24 | 53.63577 | 9.99129 | 44 ft | 124 kts | 333° |
| 2026-04-23 20:24 | 53.64501 | 9.98344 | 133 ft | 165 kts | 330° |
| 2026-04-23 20:25 | 53.65547 | 9.97462 | 662 ft | 176 kts | 330° |
| 2026-04-23 20:25 | 53.66288 | 9.96826 | 938 ft | 187 kts | 331° |
| 2026-04-23 20:25 | 53.67958 | 9.95382 | 1370 ft | 217 kts | 332° |
| 2026-04-23 20:25 | 53.69285 | 9.94242 | 2350 ft | 203 kts | 334° |
| 2026-04-23 20:26 | 53.70485 | 9.93176 | 3402 ft | 192 kts | 328° |
| 2026-04-23 20:26 | 53.71349 | 9.91442 | 4052 ft | 202 kts | 296° |
| 2026-04-23 20:26 | 53.71453 | 9.88928 | 4348 ft | 238 kts | 263° |
| 2026-04-23 20:26 | 53.70959 | 9.86107 | 4626 ft | 260 kts | 258° |
| 2026-04-23 20:27 | 53.70363 | 9.83165 | 5157 ft | 268 kts | 257° |
| 2026-04-23 20:27 | 53.69950 | 9.81199 | 5608 ft | 270 kts | 257° |
| 2026-04-23 20:27 | 53.69113 | 9.77227 | 6534 ft | 272 kts | 257° |
| 2026-04-23 20:27 | 53.68690 | 9.75181 | 6970 ft | 274 kts | 257° |
| 2026-04-23 20:28 | 53.67873 | 9.71127 | 7809 ft | 278 kts | 257° |
| 2026-04-23 20:28 | 53.67456 | 9.69034 | 8220 ft | 280 kts | 257° |
| 2026-04-23 20:28 | 53.66840 | 9.65939 | 8837 ft | 283 kts | 257° |
| 2026-04-23 20:28 | 53.66167 | 9.62794 | 9457 ft | 288 kts | 253° |
| 2026-04-23 20:29 | 53.65391 | 9.59647 | 10080 ft | 292 kts | 252° |
| 2026-04-23 20:29 | 53.64570 | 9.56473 | 10486 ft | 304 kts | 251° |
| 2026-04-23 20:29 | 53.63688 | 9.53100 | 10609 ft | 323 kts | 251° |
| 2026-04-23 20:29 | 53.62748 | 9.49528 | 10737 ft | 342 kts | 250° |
| 2026-04-23 20:30 | 53.61767 | 9.45817 | 11077 ft | 350 kts | 250° |
| 2026-04-23 20:30 | 53.59761 | 9.38231 | 12133 ft | 357 kts | 250° |
| 2026-04-23 20:30 | 53.58750 | 9.34383 | 12645 ft | 361 kts | 250° |
| 2026-04-23 20:31 | 53.57729 | 9.30501 | 13174 ft | 365 kts | 249° |
| 2026-04-23 20:31 | 53.56697 | 9.26583 | 13702 ft | 368 kts | 249° |
| 2026-04-23 20:31 | 53.55653 | 9.22625 | 14194 ft | 371 kts | 249° |
| 2026-04-23 20:31 | 53.54597 | 9.18640 | 14680 ft | 374 kts | 249° |
| 2026-04-23 20:32 | 53.53535 | 9.14638 | 15170 ft | 376 kts | 249° |
| 2026-04-23 20:32 | 53.52463 | 9.10602 | 15675 ft | 378 kts | 249° |
| 2026-04-23 20:32 | 53.51386 | 9.06550 | 16162 ft | 381 kts | 249° |
| 2026-04-23 20:32 | 53.50304 | 9.02487 | 16640 ft | 383 kts | 249° |
| 2026-04-23 20:33 | 53.49208 | 8.98386 | 17129 ft | 385 kts | 249° |
| 2026-04-23 20:33 | 53.48108 | 8.94274 | 17603 ft | 387 kts | 248° |
| 2026-04-23 20:33 | 53.47001 | 8.90137 | 18074 ft | 389 kts | 248° |
| 2026-04-23 20:33 | 53.45890 | 8.85985 | 18540 ft | 392 kts | 249° |
| 2026-04-23 20:34 | 53.44768 | 8.81807 | 18946 ft | 394 kts | 248° |
| 2026-04-23 20:34 | 53.43638 | 8.77611 | 19325 ft | 396 kts | 248° |
| 2026-04-23 20:34 | 53.42501 | 8.73389 | 19713 ft | 397 kts | 248° |
| 2026-04-23 20:34 | 53.41360 | 8.69157 | 20073 ft | 400 kts | 247° |
| 2026-04-23 20:35 | 53.40210 | 8.64901 | 20449 ft | 401 kts | 248° |
| 2026-04-23 20:35 | 53.39054 | 8.60638 | 20848 ft | 403 kts | 248° |
| 2026-04-23 20:35 | 53.37887 | 8.56350 | 21224 ft | 405 kts | 248° |
| 2026-04-23 20:35 | 53.36716 | 8.52050 | 21596 ft | 407 kts | 248° |
| 2026-04-23 20:36 | 53.35555 | 8.47792 | 21956 ft | 408 kts | 247° |
| 2026-04-23 20:36 | 53.34372 | 8.43465 | 22328 ft | 410 kts | 248° |
| 2026-04-23 20:36 | 53.33182 | 8.39116 | 22690 ft | 411 kts | 247° |
| 2026-04-23 20:36 | 53.31989 | 8.34758 | 23045 ft | 413 kts | 246° |
| 2026-04-23 20:37 | 53.30770 | 8.30320 | 23403 ft | 415 kts | 247° |
| 2026-04-23 20:37 | 53.29578 | 8.25991 | 23753 ft | 417 kts | 247° |
| 2026-04-23 20:37 | 53.28360 | 8.21579 | 24059 ft | 418 kts | 246° |
| 2026-04-23 20:37 | 53.27137 | 8.17156 | 24382 ft | 419 kts | 246° |
| 2026-04-23 20:38 | 53.25912 | 8.12733 | 24706 ft | 420 kts | 246° |
| 2026-04-23 20:38 | 53.24678 | 8.08283 | 25016 ft | 421 kts | 246° |
| 2026-04-23 20:38 | 53.23443 | 8.03838 | 25288 ft | 423 kts | 246° |
| 2026-04-23 20:38 | 53.22201 | 7.99375 | 25575 ft | 425 kts | 245° |
| 2026-04-23 20:39 | 53.20952 | 7.94898 | 25852 ft | 426 kts | 246° |
| 2026-04-23 20:39 | 53.19698 | 7.90407 | 26122 ft | 428 kts | 246° |
| 2026-04-23 20:39 | 53.18433 | 7.85896 | 26376 ft | 430 kts | 246° |
| 2026-04-23 20:39 | 53.17161 | 7.81368 | 26653 ft | 432 kts | 245° |
| 2026-04-23 20:40 | 53.15885 | 7.76830 | 26930 ft | 433 kts | 245° |
| 2026-04-23 20:40 | 53.14603 | 7.72276 | 27188 ft | 435 kts | 245° |
| 2026-04-23 20:40 | 53.13312 | 7.67705 | 27456 ft | 437 kts | 246° |
| 2026-04-23 20:40 | 53.12018 | 7.63122 | 27751 ft | 437 kts | 245° |
| 2026-04-23 20:41 | 53.10724 | 7.58541 | 28059 ft | 438 kts | 245° |
| 2026-04-23 20:41 | 53.09423 | 7.53949 | 28350 ft | 439 kts | 244° |
| 2026-04-23 20:41 | 53.08109 | 7.49341 | 28638 ft | 440 kts | 244° |
| 2026-04-23 20:41 | 53.06795 | 7.44738 | 28869 ft | 442 kts | 244° |
| 2026-04-23 20:42 | 53.05469 | 7.40100 | 29113 ft | 444 kts | 244° |
| 2026-04-23 20:42 | 53.04142 | 7.35463 | 29378 ft | 445 kts | 244° |
| 2026-04-23 20:42 | 53.02808 | 7.30816 | 29612 ft | 447 kts | 244° |
| 2026-04-23 20:42 | 53.01463 | 7.26137 | 29802 ft | 449 kts | 243° |
| 2026-04-23 20:43 | 53.00117 | 7.21456 | 30016 ft | 450 kts | 243° |
| 2026-04-23 20:43 | 52.98764 | 7.16763 | 30229 ft | 452 kts | 243° |
| 2026-04-23 20:43 | 52.97401 | 7.12052 | 30405 ft | 453 kts | 243° |
| 2026-04-23 20:43 | 52.96038 | 7.07337 | 30613 ft | 453 kts | 243° |
| 2026-04-23 20:44 | 52.94675 | 7.02630 | 30848 ft | 452 kts | 244° |
| 2026-04-23 20:44 | 52.93313 | 6.97933 | 31086 ft | 451 kts | 243° |
| 2026-04-23 20:44 | 52.91950 | 6.93253 | 31334 ft | 450 kts | 243° |
| 2026-04-23 20:44 | 52.90587 | 6.88589 | 31574 ft | 449 kts | 243° |
| 2026-04-23 20:45 | 52.89224 | 6.83932 | 31783 ft | 449 kts | 242° |
| 2026-04-23 20:45 | 52.87860 | 6.79285 | 32017 ft | 448 kts | 243° |
| 2026-04-23 20:45 | 52.86496 | 6.74647 | 32249 ft | 448 kts | 243° |
| 2026-04-23 20:45 | 52.85135 | 6.70022 | 32470 ft | 447 kts | 243° |
| 2026-04-23 20:46 | 52.83773 | 6.65401 | 32695 ft | 446 kts | 242° |
| 2026-04-23 20:46 | 52.82411 | 6.60788 | 32930 ft | 446 kts | 243° |
| 2026-04-23 20:46 | 52.81046 | 6.56180 | 33103 ft | 446 kts | 242° |
| 2026-04-23 20:46 | 52.79680 | 6.51581 | 33315 ft | 446 kts | 242° |
| 2026-04-23 20:47 | 52.78312 | 6.46986 | 33543 ft | 445 kts | 242° |
| 2026-04-23 20:47 | 52.76966 | 6.42460 | 33783 ft | 444 kts | 242° |
| 2026-04-23 20:47 | 52.75606 | 6.37889 | 34001 ft | 443 kts | 242° |
| 2026-04-23 20:47 | 52.74246 | 6.33327 | 34219 ft | 443 kts | 242° |
| 2026-04-23 20:48 | 52.72883 | 6.28774 | 34352 ft | 441 kts | 242° |
| 2026-04-23 20:48 | 52.71527 | 6.24249 | 34378 ft | 438 kts | 242° |
| 2026-04-23 20:48 | 52.68823 | 6.15263 | 34383 ft | 437 kts | 241° |
| 2026-04-23 20:49 | 52.66116 | 6.06302 | 34384 ft | 437 kts | 241° |
| 2026-04-23 20:49 | 52.63409 | 5.97353 | 34390 ft | 435 kts | 241° |
| 2026-04-23 20:50 | 52.60705 | 5.88457 | 34389 ft | 435 kts | 240° |
| 2026-04-23 20:50 | 52.57984 | 5.79564 | 34390 ft | 435 kts | 240° |
| 2026-04-23 20:51 | 52.55255 | 5.70688 | 34393 ft | 435 kts | 240° |
| 2026-04-23 20:51 | 52.52525 | 5.61807 | 34411 ft | 435 kts | 240° |
| 2026-04-23 20:52 | 52.49793 | 5.52932 | 34413 ft | 435 kts | 240° |
| 2026-04-23 20:52 | 52.47050 | 5.44061 | 34423 ft | 435 kts | 240° |
| 2026-04-23 20:53 | 52.44303 | 5.35223 | 34424 ft | 435 kts | 240° |
| 2026-04-23 20:53 | 52.41550 | 5.26407 | 34421 ft | 434 kts | 240° |
| 2026-04-23 20:54 | 52.38791 | 5.17617 | 34416 ft | 434 kts | 239° |
| 2026-04-23 20:54 | 52.36026 | 5.08818 | 34414 ft | 434 kts | 239° |
| 2026-04-23 20:55 | 52.33264 | 5.00039 | 34413 ft | 434 kts | 239° |
| 2026-04-23 20:55 | 52.30492 | 4.91270 | 34419 ft | 434 kts | 239° |
| 2026-04-23 20:56 | 52.27708 | 4.82523 | 34421 ft | 434 kts | 239° |
| 2026-04-23 20:56 | 52.24918 | 4.73787 | 34421 ft | 433 kts | 239° |
| 2026-04-23 20:57 | 52.22126 | 4.65073 | 34406 ft | 433 kts | 239° |
| 2026-04-23 20:57 | 52.19332 | 4.56358 | 34411 ft | 433 kts | 238° |
| 2026-04-23 20:58 | 52.16529 | 4.47655 | 34402 ft | 434 kts | 238° |
| 2026-04-23 20:58 | 52.13717 | 4.38949 | 34399 ft | 434 kts | 238° |
| 2026-04-23 20:59 | 52.10912 | 4.30308 | 34412 ft | 434 kts | 238° |
| 2026-04-23 20:59 | 52.08086 | 4.21621 | 34412 ft | 434 kts | 238° |
| 2026-04-23 21:00 | 52.05249 | 4.12942 | 34413 ft | 435 kts | 238° |
| 2026-04-23 21:00 | 52.02404 | 4.04287 | 34417 ft | 435 kts | 238° |
| 2026-04-23 21:01 | 51.99551 | 3.95630 | 34420 ft | 435 kts | 238° |
| 2026-04-23 21:01 | 51.96695 | 3.86978 | 34430 ft | 435 kts | 238° |
| 2026-04-23 21:02 | 51.93835 | 3.78343 | 34425 ft | 435 kts | 237° |
| 2026-04-23 21:02 | 51.90960 | 3.69703 | 34408 ft | 435 kts | 237° |
| 2026-04-23 21:03 | 51.88081 | 3.61086 | 34410 ft | 435 kts | 237° |
| 2026-04-23 21:03 | 51.85194 | 3.52471 | 34407 ft | 435 kts | 237° |
| 2026-04-23 21:04 | 51.82307 | 3.43875 | 34408 ft | 435 kts | 237° |
| 2026-04-23 21:04 | 51.79412 | 3.35286 | 34420 ft | 435 kts | 237° |
| 2026-04-23 21:05 | 51.76505 | 3.26717 | 34430 ft | 435 kts | 237° |
| 2026-04-23 21:05 | 51.73786 | 3.17981 | 34415 ft | 440 kts | 246° |
| 2026-04-23 21:06 | 51.72515 | 3.08246 | 34425 ft | 447 kts | 258° |
| 2026-04-23 21:06 | 51.71672 | 2.98296 | 34416 ft | 448 kts | 257° |
| 2026-04-23 21:07 | 51.70944 | 2.90038 | 34437 ft | 448 kts | 257° |
| 2026-04-23 21:07 | 51.70061 | 2.80103 | 34420 ft | 448 kts | 257° |
| 2026-04-23 21:08 | 51.69169 | 2.70144 | 34396 ft | 450 kts | 257° |
| 2026-04-23 21:08 | 51.68276 | 2.60154 | 34390 ft | 451 kts | 257° |
| 2026-04-23 21:09 | 51.67373 | 2.50137 | 34403 ft | 452 kts | 257° |
| 2026-04-23 21:09 | 51.66457 | 2.40119 | 34428 ft | 452 kts | 256° |
| 2026-04-23 21:10 | 51.65535 | 2.30091 | 34429 ft | 453 kts | 256° |
| 2026-04-23 21:10 | 51.64599 | 2.20000 | 34428 ft | 453 kts | 256° |
| 2026-04-23 21:11 | 51.63662 | 2.10049 | 34427 ft | 453 kts | 256° |
| 2026-04-23 21:11 | 51.62727 | 2.00028 | 34428 ft | 453 kts | 256° |
| 2026-04-23 21:12 | 51.61800 | 1.90001 | 34456 ft | 453 kts | 255° |
| 2026-04-23 21:12 | 51.61008 | 1.85153 | 34452 ft | 443 kts | 242° |
| 2026-04-23 21:12 | 51.59583 | 1.80831 | 34445 ft | 434 kts | 229° |
| 2026-04-23 21:13 | 51.55697 | 1.73526 | 34443 ft | 430 kts | 223° |
| 2026-04-23 21:13 | 51.51724 | 1.66329 | 34438 ft | 431 kts | 223° |
| 2026-04-23 21:14 | 51.47741 | 1.59121 | 34432 ft | 431 kts | 224° |